sensor_id;sensor_type;location;lat;lon;timestamp;P1;durP1;ratioP1;P2;durP2;ratioP2
5221;SDS011;2630;52.036;8.514;2022-09-06T00:02:10;73.07;;;5.93;;
5221;SDS011;2630;52.036;8.514;2022-09-06T00:04:35;74.17;;;6.07;;
5221;SDS011;2630;52.036;8.514;2022-09-06T00:07:01;72.87;;;5.70;;
5221;SDS011;2630;52.036;8.514;2022-09-06T00:09:27;73.07;;;6.00;;
5221;SDS011;2630;52.036;8.514;2022-09-06T00:11:53;73.00;;;5.43;;
5221;SDS011;2630;52.036;8.514;2022-09-06T00:14:19;72.90;;;5.77;;
5221;SDS011;2630;52.036;8.514;2022-09-06T00:16:44;73.50;;;5.80;;
5221;SDS011;2630;52.036;8.514;2022-09-06T00:19:10;72.83;;;5.07;;
5221;SDS011;2630;52.036;8.514;2022-09-06T00:21:36;72.83;;;5.53;;
5221;SDS011;2630;52.036;8.514;2022-09-06T00:24:01;72.80;;;5.50;;
5221;SDS011;2630;52.036;8.514;2022-09-06T00:26:27;74.37;;;6.07;;
5221;SDS011;2630;52.036;8.514;2022-09-06T00:28:53;72.70;;;5.43;;
5221;SDS011;2630;52.036;8.514;2022-09-06T00:31:21;74.30;;;5.80;;
5221;SDS011;2630;52.036;8.514;2022-09-06T00:33:48;73.20;;;5.67;;
5221;SDS011;2630;52.036;8.514;2022-09-06T00:36:14;73.03;;;5.80;;
5221;SDS011;2630;52.036;8.514;2022-09-06T00:38:40;73.07;;;5.77;;
5221;SDS011;2630;52.036;8.514;2022-09-06T00:41:07;72.90;;;6.13;;
5221;SDS011;2630;52.036;8.514;2022-09-06T00:43:35;72.73;;;5.47;;
5221;SDS011;2630;52.036;8.514;2022-09-06T00:46:01;73.70;;;6.07;;
5221;SDS011;2630;52.036;8.514;2022-09-06T00:48:28;73.00;;;5.43;;
5221;SDS011;2630;52.036;8.514;2022-09-06T00:50:58;72.93;;;5.70;;
5221;SDS011;2630;52.036;8.514;2022-09-06T00:53:25;73.10;;;5.97;;
5221;SDS011;2630;52.036;8.514;2022-09-06T00:55:51;75.40;;;5.67;;
5221;SDS011;2630;52.036;8.514;2022-09-06T00:58:17;73.03;;;5.63;;
5221;SDS011;2630;52.036;8.514;2022-09-06T01:00:43;73.47;;;6.43;;
5221;SDS011;2630;52.036;8.514;2022-09-06T01:03:09;75.70;;;5.80;;
5221;SDS011;2630;52.036;8.514;2022-09-06T01:05:49;73.00;;;5.90;;
5221;SDS011;2630;52.036;8.514;2022-09-06T01:25:58;78.40;;;5.97;;
5221;SDS011;2630;52.036;8.514;2022-09-06T01:28:46;72.80;;;5.50;;
5221;SDS011;2630;52.036;8.514;2022-09-06T01:36:29;78.73;;;7.27;;
5221;SDS011;2630;52.036;8.514;2022-09-06T01:38:57;72.87;;;5.07;;
5221;SDS011;2630;52.036;8.514;2022-09-06T01:41:22;72.50;;;4.93;;
5221;SDS011;2630;52.036;8.514;2022-09-06T01:43:48;72.50;;;5.00;;
5221;SDS011;2630;52.036;8.514;2022-09-06T01:46:22;72.70;;;5.50;;
5221;SDS011;2630;52.036;8.514;2022-09-06T01:57:31;73.07;;;5.30;;
5221;SDS011;2630;52.036;8.514;2022-09-06T02:00:11;72.90;;;5.63;;
5221;SDS011;2630;52.036;8.514;2022-09-06T02:05:45;72.97;;;5.60;;
5221;SDS011;2630;52.036;8.514;2022-09-06T02:08:16;73.50;;;6.23;;
5221;SDS011;2630;52.036;8.514;2022-09-06T02:10:54;75.97;;;7.63;;
5221;SDS011;2630;52.036;8.514;2022-09-06T02:13:23;72.97;;;6.07;;
5221;SDS011;2630;52.036;8.514;2022-09-06T02:15:53;80.93;;;6.77;;
5221;SDS011;2630;52.036;8.514;2022-09-06T02:18:26;72.80;;;5.37;;
5221;SDS011;2630;52.036;8.514;2022-09-06T02:20:55;73.67;;;5.93;;
5221;SDS011;2630;52.036;8.514;2022-09-06T02:23:23;73.20;;;5.83;;
5221;SDS011;2630;52.036;8.514;2022-09-06T02:25:53;74.70;;;5.67;;
5221;SDS011;2630;52.036;8.514;2022-09-06T02:28:31;73.07;;;6.03;;
5221;SDS011;2630;52.036;8.514;2022-09-06T02:30:58;72.70;;;5.03;;
5221;SDS011;2630;52.036;8.514;2022-09-06T02:33:29;72.97;;;5.67;;
5221;SDS011;2630;52.036;8.514;2022-09-06T02:36:01;73.30;;;5.90;;
5221;SDS011;2630;52.036;8.514;2022-09-06T02:38:29;72.77;;;5.27;;
5221;SDS011;2630;52.036;8.514;2022-09-06T02:40:58;72.70;;;5.37;;
5221;SDS011;2630;52.036;8.514;2022-09-06T02:43:24;73.07;;;4.87;;
5221;SDS011;2630;52.036;8.514;2022-09-06T02:45:49;75.50;;;5.60;;
5221;SDS011;2630;52.036;8.514;2022-09-06T02:48:15;83.37;;;7.47;;
5221;SDS011;2630;52.036;8.514;2022-09-06T02:50:41;84.43;;;7.80;;
5221;SDS011;2630;52.036;8.514;2022-09-06T02:53:10;85.97;;;7.73;;
5221;SDS011;2630;52.036;8.514;2022-09-06T02:55:37;73.50;;;5.67;;
5221;SDS011;2630;52.036;8.514;2022-09-06T02:58:04;81.17;;;7.20;;
5221;SDS011;2630;52.036;8.514;2022-09-06T03:00:31;75.00;;;6.10;;
5221;SDS011;2630;52.036;8.514;2022-09-06T03:02:57;72.80;;;5.50;;
5221;SDS011;2630;52.036;8.514;2022-09-06T03:05:26;72.47;;;5.27;;
5221;SDS011;2630;52.036;8.514;2022-09-06T03:07:52;73.23;;;5.63;;
5221;SDS011;2630;52.036;8.514;2022-09-06T03:10:18;72.63;;;4.90;;
5221;SDS011;2630;52.036;8.514;2022-09-06T03:12:45;73.87;;;5.47;;
5221;SDS011;2630;52.036;8.514;2022-09-06T03:15:11;88.00;;;9.10;;
5221;SDS011;2630;52.036;8.514;2022-09-06T03:17:38;76.23;;;8.33;;
5221;SDS011;2630;52.036;8.514;2022-09-06T03:20:04;73.40;;;5.50;;
5221;SDS011;2630;52.036;8.514;2022-09-06T03:22:31;72.60;;;5.40;;
5221;SDS011;2630;52.036;8.514;2022-09-06T03:24:56;74.30;;;5.03;;
5221;SDS011;2630;52.036;8.514;2022-09-06T03:27:22;72.97;;;5.67;;
5221;SDS011;2630;52.036;8.514;2022-09-06T03:29:48;72.80;;;5.47;;
5221;SDS011;2630;52.036;8.514;2022-09-06T03:32:14;72.67;;;5.13;;
5221;SDS011;2630;52.036;8.514;2022-09-06T03:34:39;73.23;;;5.63;;
5221;SDS011;2630;52.036;8.514;2022-09-06T03:37:05;72.90;;;5.83;;
5221;SDS011;2630;52.036;8.514;2022-09-06T03:39:31;73.97;;;5.80;;
5221;SDS011;2630;52.036;8.514;2022-09-06T03:41:57;72.70;;;5.57;;
5221;SDS011;2630;52.036;8.514;2022-09-06T03:44:22;73.40;;;7.13;;
5221;SDS011;2630;52.036;8.514;2022-09-06T03:46:48;72.30;;;4.70;;
5221;SDS011;2630;52.036;8.514;2022-09-06T03:49:15;75.80;;;6.03;;
5221;SDS011;2630;52.036;8.514;2022-09-06T03:51:41;77.17;;;5.97;;
5221;SDS011;2630;52.036;8.514;2022-09-06T03:54:07;72.67;;;5.77;;
5221;SDS011;2630;52.036;8.514;2022-09-06T03:56:32;91.90;;;8.73;;
5221;SDS011;2630;52.036;8.514;2022-09-06T03:58:58;73.10;;;5.80;;
5221;SDS011;2630;52.036;8.514;2022-09-06T04:01:24;72.63;;;5.00;;
5221;SDS011;2630;52.036;8.514;2022-09-06T04:03:49;75.60;;;5.77;;
5221;SDS011;2630;52.036;8.514;2022-09-06T04:06:15;73.50;;;5.17;;
5221;SDS011;2630;52.036;8.514;2022-09-06T04:08:41;72.55;;;5.55;;
5221;SDS011;2630;52.036;8.514;2022-09-06T04:11:07;78.77;;;6.87;;
5221;SDS011;2630;52.036;8.514;2022-09-06T04:13:33;73.77;;;5.37;;
5221;SDS011;2630;52.036;8.514;2022-09-06T04:15:59;73.30;;;5.20;;
5221;SDS011;2630;52.036;8.514;2022-09-06T04:18:25;73.00;;;5.50;;
5221;SDS011;2630;52.036;8.514;2022-09-06T04:20:51;72.50;;;4.80;;
5221;SDS011;2630;52.036;8.514;2022-09-06T04:23:20;72.90;;;5.47;;
5221;SDS011;2630;52.036;8.514;2022-09-06T04:25:49;78.80;;;5.47;;
5221;SDS011;2630;52.036;8.514;2022-09-06T04:28:17;72.77;;;5.67;;
5221;SDS011;2630;52.036;8.514;2022-09-06T04:30:44;72.77;;;5.20;;
5221;SDS011;2630;52.036;8.514;2022-09-06T04:33:15;73.10;;;5.90;;
5221;SDS011;2630;52.036;8.514;2022-09-06T04:35:41;78.00;;;6.30;;
5221;SDS011;2630;52.036;8.514;2022-09-06T04:38:07;72.50;;;5.30;;
5221;SDS011;2630;52.036;8.514;2022-09-06T04:40:32;74.13;;;5.90;;
5221;SDS011;2630;52.036;8.514;2022-09-06T04:42:58;73.70;;;5.83;;
5221;SDS011;2630;52.036;8.514;2022-09-06T04:45:23;72.67;;;5.37;;
5221;SDS011;2630;52.036;8.514;2022-09-06T04:47:49;73.17;;;5.90;;
5221;SDS011;2630;52.036;8.514;2022-09-06T04:50:15;73.67;;;7.93;;
5221;SDS011;2630;52.036;8.514;2022-09-06T04:52:41;72.77;;;5.77;;
5221;SDS011;2630;52.036;8.514;2022-09-06T04:55:06;72.70;;;5.47;;
5221;SDS011;2630;52.036;8.514;2022-09-06T04:57:32;72.70;;;5.30;;
5221;SDS011;2630;52.036;8.514;2022-09-06T04:59:58;72.90;;;6.10;;
5221;SDS011;2630;52.036;8.514;2022-09-06T05:02:24;72.60;;;5.33;;
5221;SDS011;2630;52.036;8.514;2022-09-06T05:04:49;74.47;;;5.63;;
5221;SDS011;2630;52.036;8.514;2022-09-06T05:07:17;77.00;;;5.90;;
5221;SDS011;2630;52.036;8.514;2022-09-06T05:09:42;72.77;;;5.60;;
5221;SDS011;2630;52.036;8.514;2022-09-06T05:12:08;75.47;;;5.87;;
5221;SDS011;2630;52.036;8.514;2022-09-06T05:14:34;72.70;;;5.27;;
5221;SDS011;2630;52.036;8.514;2022-09-06T05:16:59;74.60;;;5.83;;
5221;SDS011;2630;52.036;8.514;2022-09-06T05:19:25;76.30;;;6.00;;
5221;SDS011;2630;52.036;8.514;2022-09-06T05:21:50;73.20;;;6.50;;
5221;SDS011;2630;52.036;8.514;2022-09-06T05:24:16;73.10;;;5.13;;
5221;SDS011;2630;52.036;8.514;2022-09-06T05:26:42;80.17;;;7.10;;
5221;SDS011;2630;52.036;8.514;2022-09-06T05:29:08;74.17;;;5.87;;
5221;SDS011;2630;52.036;8.514;2022-09-06T05:31:34;74.80;;;7.53;;
5221;SDS011;2630;52.036;8.514;2022-09-06T05:34:00;75.67;;;5.57;;
5221;SDS011;2630;52.036;8.514;2022-09-06T05:36:26;72.60;;;5.50;;
5221;SDS011;2630;52.036;8.514;2022-09-06T05:38:53;73.60;;;5.83;;
5221;SDS011;2630;52.036;8.514;2022-09-06T05:41:20;77.30;;;5.37;;
5221;SDS011;2630;52.036;8.514;2022-09-06T05:43:46;73.87;;;5.60;;
5221;SDS011;2630;52.036;8.514;2022-09-06T05:46:13;74.40;;;5.47;;
5221;SDS011;2630;52.036;8.514;2022-09-06T05:48:39;73.77;;;5.10;;
5221;SDS011;2630;52.036;8.514;2022-09-06T05:51:10;84.53;;;8.50;;
5221;SDS011;2630;52.036;8.514;2022-09-06T05:53:45;72.50;;;5.07;;
5221;SDS011;2630;52.036;8.514;2022-09-06T05:56:12;72.40;;;5.40;;
5221;SDS011;2630;52.036;8.514;2022-09-06T05:58:38;75.33;;;5.57;;
5221;SDS011;2630;52.036;8.514;2022-09-06T06:03:48;74.37;;;5.40;;
5221;SDS011;2630;52.036;8.514;2022-09-06T06:06:18;73.50;;;6.77;;
5221;SDS011;2630;52.036;8.514;2022-09-06T06:08:45;72.27;;;4.93;;
5221;SDS011;2630;52.036;8.514;2022-09-06T06:11:11;72.70;;;5.57;;
5221;SDS011;2630;52.036;8.514;2022-09-06T06:13:38;74.30;;;5.70;;
5221;SDS011;2630;52.036;8.514;2022-09-06T06:16:07;76.90;;;5.97;;
5221;SDS011;2630;52.036;8.514;2022-09-06T06:18:34;75.10;;;7.37;;
5221;SDS011;2630;52.036;8.514;2022-09-06T06:21:07;73.17;;;5.40;;
5221;SDS011;2630;52.036;8.514;2022-09-06T06:23:35;75.17;;;5.33;;
5221;SDS011;2630;52.036;8.514;2022-09-06T06:26:01;74.77;;;5.17;;
5221;SDS011;2630;52.036;8.514;2022-09-06T06:28:27;75.03;;;5.23;;
5221;SDS011;2630;52.036;8.514;2022-09-06T06:30:52;72.53;;;5.87;;
5221;SDS011;2630;52.036;8.514;2022-09-06T06:33:18;76.60;;;5.87;;
5221;SDS011;2630;52.036;8.514;2022-09-06T06:36:00;73.27;;;5.37;;
5221;SDS011;2630;52.036;8.514;2022-09-06T06:38:35;72.80;;;5.50;;
5221;SDS011;2630;52.036;8.514;2022-09-06T06:41:02;73.87;;;5.77;;
5221;SDS011;2630;52.036;8.514;2022-09-06T06:43:29;72.47;;;5.67;;
5221;SDS011;2630;52.036;8.514;2022-09-06T06:46:01;75.00;;;6.23;;
5221;SDS011;2630;52.036;8.514;2022-09-06T06:48:27;72.60;;;5.20;;
5221;SDS011;2630;52.036;8.514;2022-09-06T06:50:53;73.20;;;5.50;;
5221;SDS011;2630;52.036;8.514;2022-09-06T06:53:18;77.90;;;6.53;;
5221;SDS011;2630;52.036;8.514;2022-09-06T06:55:47;78.10;;;6.20;;
5221;SDS011;2630;52.036;8.514;2022-09-06T06:58:13;78.57;;;6.17;;
5221;SDS011;2630;52.036;8.514;2022-09-06T07:00:40;72.60;;;5.27;;
5221;SDS011;2630;52.036;8.514;2022-09-06T07:03:06;77.10;;;6.60;;
5221;SDS011;2630;52.036;8.514;2022-09-06T07:05:32;74.60;;;6.23;;
5221;SDS011;2630;52.036;8.514;2022-09-06T07:07:58;74.17;;;6.23;;
5221;SDS011;2630;52.036;8.514;2022-09-06T07:10:24;75.17;;;5.90;;
5221;SDS011;2630;52.036;8.514;2022-09-06T07:12:50;77.53;;;6.80;;
5221;SDS011;2630;52.036;8.514;2022-09-06T07:15:16;74.67;;;5.80;;
5221;SDS011;2630;52.036;8.514;2022-09-06T07:17:42;73.30;;;6.40;;
5221;SDS011;2630;52.036;8.514;2022-09-06T07:20:08;72.67;;;5.63;;
5221;SDS011;2630;52.036;8.514;2022-09-06T07:22:34;72.97;;;6.27;;
5221;SDS011;2630;52.036;8.514;2022-09-06T07:25:01;73.77;;;6.90;;
5221;SDS011;2630;52.036;8.514;2022-09-06T07:27:27;73.00;;;6.20;;
5221;SDS011;2630;52.036;8.514;2022-09-06T07:29:52;73.10;;;6.43;;
5221;SDS011;2630;52.036;8.514;2022-09-06T07:32:18;73.00;;;6.50;;
5221;SDS011;2630;52.036;8.514;2022-09-06T07:34:44;72.80;;;5.83;;
5221;SDS011;2630;52.036;8.514;2022-09-06T07:37:09;73.13;;;6.33;;
5221;SDS011;2630;52.036;8.514;2022-09-06T07:39:35;77.23;;;6.53;;
5221;SDS011;2630;52.036;8.514;2022-09-06T07:42:01;72.90;;;6.03;;
5221;SDS011;2630;52.036;8.514;2022-09-06T07:44:27;72.93;;;6.40;;
5221;SDS011;2630;52.036;8.514;2022-09-06T07:46:53;74.07;;;6.00;;
5221;SDS011;2630;52.036;8.514;2022-09-06T07:49:19;73.07;;;6.80;;
5221;SDS011;2630;52.036;8.514;2022-09-06T07:51:44;83.50;;;6.53;;
5221;SDS011;2630;52.036;8.514;2022-09-06T07:54:11;78.00;;;7.00;;
5221;SDS011;2630;52.036;8.514;2022-09-06T07:56:36;81.23;;;6.73;;
5221;SDS011;2630;52.036;8.514;2022-09-06T07:59:02;76.80;;;6.80;;
5221;SDS011;2630;52.036;8.514;2022-09-06T08:04:01;82.03;;;6.07;;
5221;SDS011;2630;52.036;8.514;2022-09-06T08:06:35;79.13;;;6.80;;
5221;SDS011;2630;52.036;8.514;2022-09-06T08:09:02;72.90;;;6.10;;
5221;SDS011;2630;52.036;8.514;2022-09-06T08:11:31;72.80;;;5.67;;
5221;SDS011;2630;52.036;8.514;2022-09-06T08:13:58;77.97;;;7.07;;
5221;SDS011;2630;52.036;8.514;2022-09-06T08:16:25;75.97;;;6.53;;
5221;SDS011;2630;52.036;8.514;2022-09-06T08:18:53;72.93;;;6.13;;
5221;SDS011;2630;52.036;8.514;2022-09-06T08:21:23;76.73;;;6.50;;
5221;SDS011;2630;52.036;8.514;2022-09-06T08:23:55;74.50;;;6.60;;
5221;SDS011;2630;52.036;8.514;2022-09-06T08:26:22;78.67;;;6.50;;
5221;SDS011;2630;52.036;8.514;2022-09-06T08:28:59;73.07;;;5.87;;
5221;SDS011;2630;52.036;8.514;2022-09-06T08:31:27;73.77;;;6.40;;
5221;SDS011;2630;52.036;8.514;2022-09-06T08:33:54;77.27;;;8.53;;
5221;SDS011;2630;52.036;8.514;2022-09-06T08:36:21;74.23;;;6.00;;
5221;SDS011;2630;52.036;8.514;2022-09-06T08:38:47;73.50;;;6.53;;
5221;SDS011;2630;52.036;8.514;2022-09-06T08:43:38;77.70;;;7.27;;
5221;SDS011;2630;52.036;8.514;2022-09-06T08:46:13;73.80;;;6.83;;
5221;SDS011;2630;52.036;8.514;2022-09-06T08:48:40;73.17;;;5.97;;
5221;SDS011;2630;52.036;8.514;2022-09-06T08:53:47;77.20;;;6.90;;
5221;SDS011;2630;52.036;8.514;2022-09-06T08:56:17;72.07;;;6.00;;
5221;SDS011;2630;52.036;8.514;2022-09-06T09:04:17;73.17;;;7.03;;
5221;SDS011;2630;52.036;8.514;2022-09-06T09:06:48;74.50;;;7.70;;
5221;SDS011;2630;52.036;8.514;2022-09-06T09:09:17;73.37;;;6.97;;
5221;SDS011;2630;52.036;8.514;2022-09-06T09:11:44;73.70;;;7.30;;
5221;SDS011;2630;52.036;8.514;2022-09-06T09:14:20;74.17;;;6.17;;
5221;SDS011;2630;52.036;8.514;2022-09-06T09:17:02;73.50;;;6.97;;
5221;SDS011;2630;52.036;8.514;2022-09-06T09:19:36;73.43;;;6.97;;
5221;SDS011;2630;52.036;8.514;2022-09-06T09:22:05;75.63;;;8.10;;
5221;SDS011;2630;52.036;8.514;2022-09-06T09:24:31;75.90;;;8.10;;
5221;SDS011;2630;52.036;8.514;2022-09-06T09:27:07;73.93;;;8.03;;
5221;SDS011;2630;52.036;8.514;2022-09-06T09:32:29;74.50;;;6.07;;
5221;SDS011;2630;52.036;8.514;2022-09-06T09:35:04;74.80;;;8.43;;
5221;SDS011;2630;52.036;8.514;2022-09-06T09:37:44;74.57;;;7.17;;
5221;SDS011;2630;52.036;8.514;2022-09-06T09:40:15;73.93;;;7.23;;
5221;SDS011;2630;52.036;8.514;2022-09-06T09:42:52;72.87;;;6.73;;
5221;SDS011;2630;52.036;8.514;2022-09-06T09:45:25;72.70;;;6.47;;
5221;SDS011;2630;52.036;8.514;2022-09-06T09:47:53;72.97;;;7.00;;
5221;SDS011;2630;52.036;8.514;2022-09-06T09:52:55;73.30;;;7.10;;
5221;SDS011;2630;52.036;8.514;2022-09-06T09:55:31;73.07;;;6.90;;
5221;SDS011;2630;52.036;8.514;2022-09-06T09:57:57;75.37;;;8.13;;
5221;SDS011;2630;52.036;8.514;2022-09-06T10:00:33;73.63;;;6.77;;
5221;SDS011;2630;52.036;8.514;2022-09-06T10:03:09;74.87;;;7.20;;
5221;SDS011;2630;52.036;8.514;2022-09-06T10:05:36;78.63;;;8.00;;
5221;SDS011;2630;52.036;8.514;2022-09-06T10:08:01;75.20;;;7.67;;
5221;SDS011;2630;52.036;8.514;2022-09-06T10:10:28;72.60;;;6.70;;
5221;SDS011;2630;52.036;8.514;2022-09-06T10:15:39;75.10;;;7.30;;
5221;SDS011;2630;52.036;8.514;2022-09-06T10:18:05;72.50;;;6.13;;
5221;SDS011;2630;52.036;8.514;2022-09-06T10:20:41;75.87;;;6.87;;
5221;SDS011;2630;52.036;8.514;2022-09-06T10:23:17;77.10;;;7.67;;
5221;SDS011;2630;52.036;8.514;2022-09-06T10:28:28;73.07;;;7.67;;
5221;SDS011;2630;52.036;8.514;2022-09-06T10:33:31;72.57;;;7.23;;
5221;SDS011;2630;52.036;8.514;2022-09-06T10:35:59;72.30;;;6.60;;
5221;SDS011;2630;52.036;8.514;2022-09-06T10:46:45;72.60;;;7.27;;
5221;SDS011;2630;52.036;8.514;2022-09-06T10:49:14;74.30;;;7.57;;
5221;SDS011;2630;52.036;8.514;2022-09-06T10:51:49;73.67;;;7.40;;
5221;SDS011;2630;52.036;8.514;2022-09-06T10:54:21;75.33;;;6.67;;
5221;SDS011;2630;52.036;8.514;2022-09-06T11:00:05;73.47;;;6.50;;
5221;SDS011;2630;52.036;8.514;2022-09-06T11:05:26;74.40;;;8.30;;
5221;SDS011;2630;52.036;8.514;2022-09-06T11:07:59;73.57;;;7.20;;
5221;SDS011;2630;52.036;8.514;2022-09-06T11:10:30;75.63;;;7.23;;
5221;SDS011;2630;52.036;8.514;2022-09-06T11:15:28;74.17;;;7.10;;
5221;SDS011;2630;52.036;8.514;2022-09-06T11:18:35;76.40;;;7.33;;
5221;SDS011;2630;52.036;8.514;2022-09-06T11:21:03;74.20;;;7.27;;
5221;SDS011;2630;52.036;8.514;2022-09-06T11:26:35;83.43;;;8.27;;
5221;SDS011;2630;52.036;8.514;2022-09-06T11:29:09;79.40;;;8.30;;
5221;SDS011;2630;52.036;8.514;2022-09-06T11:31:55;73.67;;;6.93;;
5221;SDS011;2630;52.036;8.514;2022-09-06T11:34:23;77.70;;;7.47;;
5221;SDS011;2630;52.036;8.514;2022-09-06T11:36:53;81.87;;;7.90;;
5221;SDS011;2630;52.036;8.514;2022-09-06T11:39:25;78.30;;;8.10;;
5221;SDS011;2630;52.036;8.514;2022-09-06T11:41:52;80.07;;;7.70;;
5221;SDS011;2630;52.036;8.514;2022-09-06T11:47:38;75.90;;;7.67;;
5221;SDS011;2630;52.036;8.514;2022-09-06T11:55:32;75.87;;;6.97;;
5221;SDS011;2630;52.036;8.514;2022-09-06T11:57:59;75.53;;;7.50;;
5221;SDS011;2630;52.036;8.514;2022-09-06T12:00:28;74.00;;;7.80;;
5221;SDS011;2630;52.036;8.514;2022-09-06T12:02:54;78.30;;;7.70;;
5221;SDS011;2630;52.036;8.514;2022-09-06T12:05:24;82.83;;;7.77;;
5221;SDS011;2630;52.036;8.514;2022-09-06T12:15:57;74.40;;;7.07;;
5221;SDS011;2630;52.036;8.514;2022-09-06T12:21:30;74.13;;;7.27;;
5221;SDS011;2630;52.036;8.514;2022-09-06T12:23:58;78.63;;;7.37;;
5221;SDS011;2630;52.036;8.514;2022-09-06T12:29:11;85.60;;;8.70;;
5221;SDS011;2630;52.036;8.514;2022-09-06T12:31:49;79.30;;;8.30;;
5221;SDS011;2630;52.036;8.514;2022-09-06T12:34:24;75.10;;;7.73;;
5221;SDS011;2630;52.036;8.514;2022-09-06T12:36:57;89.20;;;9.30;;
5221;SDS011;2630;52.036;8.514;2022-09-06T12:39:26;91.40;;;10.87;;
5221;SDS011;2630;52.036;8.514;2022-09-06T12:42:10;87.13;;;9.33;;
5221;SDS011;2630;52.036;8.514;2022-09-06T12:44:38;75.90;;;8.00;;
5221;SDS011;2630;52.036;8.514;2022-09-06T12:49:37;75.30;;;7.50;;
5221;SDS011;2630;52.036;8.514;2022-09-06T12:52:20;75.77;;;7.57;;
5221;SDS011;2630;52.036;8.514;2022-09-06T12:54:47;73.60;;;6.80;;
5221;SDS011;2630;52.036;8.514;2022-09-06T12:57:16;74.00;;;7.90;;
5221;SDS011;2630;52.036;8.514;2022-09-06T13:02:17;73.17;;;6.40;;
5221;SDS011;2630;52.036;8.514;2022-09-06T13:04:48;73.70;;;6.63;;
5221;SDS011;2630;52.036;8.514;2022-09-06T13:07:19;74.73;;;6.70;;
5221;SDS011;2630;52.036;8.514;2022-09-06T13:09:48;76.13;;;6.97;;
5221;SDS011;2630;52.036;8.514;2022-09-06T13:12:27;74.50;;;6.30;;
5221;SDS011;2630;52.036;8.514;2022-09-06T13:17:46;72.87;;;6.83;;
5221;SDS011;2630;52.036;8.514;2022-09-06T13:20:28;73.57;;;7.00;;
5221;SDS011;2630;52.036;8.514;2022-09-06T13:23:08;73.60;;;7.17;;
5221;SDS011;2630;52.036;8.514;2022-09-06T13:25:44;73.30;;;7.30;;
5221;SDS011;2630;52.036;8.514;2022-09-06T13:28:28;75.10;;;7.03;;
5221;SDS011;2630;52.036;8.514;2022-09-06T13:31:03;73.47;;;7.03;;
5221;SDS011;2630;52.036;8.514;2022-09-06T13:33:31;75.13;;;8.47;;
5221;SDS011;2630;52.036;8.514;2022-09-06T13:36:13;73.77;;;7.53;;
5221;SDS011;2630;52.036;8.514;2022-09-06T13:38:47;78.57;;;8.20;;
5221;SDS011;2630;52.036;8.514;2022-09-06T13:43:56;81.10;;;8.07;;
5221;SDS011;2630;52.036;8.514;2022-09-06T13:46:23;79.40;;;8.30;;
5221;SDS011;2630;52.036;8.514;2022-09-06T13:48:52;73.30;;;6.73;;
5221;SDS011;2630;52.036;8.514;2022-09-06T13:51:18;74.83;;;6.40;;
5221;SDS011;2630;52.036;8.514;2022-09-06T13:53:44;94.87;;;7.93;;
5221;SDS011;2630;52.036;8.514;2022-09-06T13:56:10;81.17;;;7.97;;
5221;SDS011;2630;52.036;8.514;2022-09-06T13:58:36;73.80;;;7.03;;
5221;SDS011;2630;52.036;8.514;2022-09-06T14:01:02;73.00;;;6.53;;
5221;SDS011;2630;52.036;8.514;2022-09-06T14:03:32;73.80;;;8.00;;
5221;SDS011;2630;52.036;8.514;2022-09-06T14:05:58;74.10;;;8.40;;
5221;SDS011;2630;52.036;8.514;2022-09-06T14:08:24;74.30;;;8.10;;
5221;SDS011;2630;52.036;8.514;2022-09-06T14:10:51;75.30;;;8.20;;
5221;SDS011;2630;52.036;8.514;2022-09-06T14:13:17;76.47;;;8.37;;
5221;SDS011;2630;52.036;8.514;2022-09-06T14:15:44;82.60;;;8.37;;
5221;SDS011;2630;52.036;8.514;2022-09-06T14:18:11;73.60;;;7.03;;
5221;SDS011;2630;52.036;8.514;2022-09-06T14:20:36;74.60;;;6.40;;
5221;SDS011;2630;52.036;8.514;2022-09-06T14:23:02;73.57;;;7.10;;
5221;SDS011;2630;52.036;8.514;2022-09-06T14:25:28;73.40;;;6.20;;
5221;SDS011;2630;52.036;8.514;2022-09-06T14:27:54;73.60;;;7.27;;
5221;SDS011;2630;52.036;8.514;2022-09-06T14:30:20;75.30;;;8.30;;
5221;SDS011;2630;52.036;8.514;2022-09-06T14:32:46;73.83;;;8.17;;
5221;SDS011;2630;52.036;8.514;2022-09-06T14:35:11;73.70;;;7.57;;
5221;SDS011;2630;52.036;8.514;2022-09-06T14:37:37;73.30;;;6.53;;
5221;SDS011;2630;52.036;8.514;2022-09-06T14:40:03;73.60;;;7.73;;
5221;SDS011;2630;52.036;8.514;2022-09-06T14:42:29;73.50;;;7.23;;
5221;SDS011;2630;52.036;8.514;2022-09-06T14:44:55;73.10;;;6.87;;
5221;SDS011;2630;52.036;8.514;2022-09-06T14:47:21;73.37;;;6.90;;
5221;SDS011;2630;52.036;8.514;2022-09-06T14:49:46;76.43;;;8.00;;
5221;SDS011;2630;52.036;8.514;2022-09-06T14:52:12;73.30;;;7.33;;
5221;SDS011;2630;52.036;8.514;2022-09-06T14:54:37;73.67;;;7.10;;
5221;SDS011;2630;52.036;8.514;2022-09-06T14:57:03;73.40;;;7.40;;
5221;SDS011;2630;52.036;8.514;2022-09-06T14:59:29;73.47;;;7.03;;
5221;SDS011;2630;52.036;8.514;2022-09-06T15:01:54;73.47;;;7.03;;
5221;SDS011;2630;52.036;8.514;2022-09-06T15:04:21;74.80;;;7.40;;
5221;SDS011;2630;52.036;8.514;2022-09-06T15:06:47;73.67;;;7.20;;
5221;SDS011;2630;52.036;8.514;2022-09-06T15:09:13;73.50;;;6.37;;
5221;SDS011;2630;52.036;8.514;2022-09-06T15:11:40;74.00;;;7.20;;
5221;SDS011;2630;52.036;8.514;2022-09-06T15:14:12;73.40;;;6.63;;
5221;SDS011;2630;52.036;8.514;2022-09-06T15:16:38;79.30;;;8.40;;
5221;SDS011;2630;52.036;8.514;2022-09-06T15:19:04;76.20;;;7.53;;
5221;SDS011;2630;52.036;8.514;2022-09-06T15:21:30;74.50;;;7.33;;
5221;SDS011;2630;52.036;8.514;2022-09-06T15:23:56;79.30;;;8.40;;
5221;SDS011;2630;52.036;8.514;2022-09-06T15:26:22;77.87;;;8.87;;
5221;SDS011;2630;52.036;8.514;2022-09-06T15:28:49;74.30;;;8.13;;
5221;SDS011;2630;52.036;8.514;2022-09-06T15:31:14;74.47;;;7.80;;
5221;SDS011;2630;52.036;8.514;2022-09-06T15:33:41;73.80;;;7.40;;
5221;SDS011;2630;52.036;8.514;2022-09-06T15:36:08;74.70;;;7.70;;
5221;SDS011;2630;52.036;8.514;2022-09-06T15:38:35;74.07;;;7.90;;
5221;SDS011;2630;52.036;8.514;2022-09-06T15:41:11;73.67;;;6.87;;
5221;SDS011;2630;52.036;8.514;2022-09-06T15:43:39;75.53;;;7.40;;
5221;SDS011;2630;52.036;8.514;2022-09-06T15:46:07;73.77;;;6.93;;
5221;SDS011;2630;52.036;8.514;2022-09-06T15:48:38;74.77;;;8.20;;
5221;SDS011;2630;52.036;8.514;2022-09-06T15:51:08;79.63;;;9.07;;
5221;SDS011;2630;52.036;8.514;2022-09-06T15:53:35;73.90;;;7.80;;
5221;SDS011;2630;52.036;8.514;2022-09-06T15:56:02;77.23;;;8.03;;
5221;SDS011;2630;52.036;8.514;2022-09-06T15:58:28;73.97;;;7.37;;
5221;SDS011;2630;52.036;8.514;2022-09-06T16:01:28;74.67;;;7.97;;
5221;SDS011;2630;52.036;8.514;2022-09-06T16:03:49;74.90;;;7.27;;
5221;SDS011;2630;52.036;8.514;2022-09-06T16:06:29;75.27;;;6.90;;
5221;SDS011;2630;52.036;8.514;2022-09-06T16:08:58;74.37;;;7.93;;
5221;SDS011;2630;52.036;8.514;2022-09-06T16:11:26;73.77;;;7.57;;
5221;SDS011;2630;52.036;8.514;2022-09-06T16:13:53;74.00;;;7.83;;
5221;SDS011;2630;52.036;8.514;2022-09-06T16:16:20;74.00;;;7.90;;
5221;SDS011;2630;52.036;8.514;2022-09-06T16:18:48;79.77;;;8.20;;
5221;SDS011;2630;52.036;8.514;2022-09-06T16:21:20;73.87;;;7.90;;
5221;SDS011;2630;52.036;8.514;2022-09-06T16:23:50;75.17;;;8.23;;
5221;SDS011;2630;52.036;8.514;2022-09-06T16:26:21;75.90;;;8.20;;
5221;SDS011;2630;52.036;8.514;2022-09-06T16:28:48;77.37;;;8.07;;
5221;SDS011;2630;52.036;8.514;2022-09-06T16:31:15;74.97;;;8.07;;
5221;SDS011;2630;52.036;8.514;2022-09-06T16:33:41;73.83;;;7.80;;
5221;SDS011;2630;52.036;8.514;2022-09-06T16:36:09;74.00;;;8.00;;
5221;SDS011;2630;52.036;8.514;2022-09-06T16:38:35;74.20;;;7.90;;
5221;SDS011;2630;52.036;8.514;2022-09-06T16:41:12;75.23;;;8.27;;
5221;SDS011;2630;52.036;8.514;2022-09-06T16:43:46;74.17;;;7.77;;
5221;SDS011;2630;52.036;8.514;2022-09-06T16:46:16;73.37;;;7.10;;
5221;SDS011;2630;52.036;8.514;2022-09-06T16:48:42;77.13;;;8.00;;
5221;SDS011;2630;52.036;8.514;2022-09-06T16:51:15;73.90;;;7.87;;
5221;SDS011;2630;52.036;8.514;2022-09-06T16:53:43;75.17;;;8.07;;
5221;SDS011;2630;52.036;8.514;2022-09-06T16:56:10;75.07;;;7.77;;
5221;SDS011;2630;52.036;8.514;2022-09-06T16:58:39;75.80;;;8.27;;
5221;SDS011;2630;52.036;8.514;2022-09-06T17:01:06;74.40;;;7.53;;
5221;SDS011;2630;52.036;8.514;2022-09-06T17:03:33;76.20;;;7.97;;
5221;SDS011;2630;52.036;8.514;2022-09-06T17:06:00;76.27;;;7.83;;